sensor_id;sensor_type;location;lat;lon;timestamp;P1;durP1;ratioP1;P2;durP2;ratioP2
31730;SDS011;18310;55.586;12.286;2023-10-13T00:01:03;9.85;;;3.03;;
31730;SDS011;18310;55.586;12.286;2023-10-13T00:04:09;12.90;;;2.67;;
31730;SDS011;18310;55.586;12.286;2023-10-13T00:07:12;13.13;;;3.13;;
31730;SDS011;18310;55.586;12.286;2023-10-13T00:10:15;9.70;;;2.30;;
31730;SDS011;18310;55.586;12.286;2023-10-13T00:13:22;12.48;;;2.95;;
31730;SDS011;18310;55.586;12.286;2023-10-13T00:16:26;13.48;;;2.47;;
31730;SDS011;18310;55.586;12.286;2023-10-13T00:19:30;9.77;;;2.75;;
31730;SDS011;18310;55.586;12.286;2023-10-13T00:22:40;11.27;;;2.85;;
31730;SDS011;18310;55.586;12.286;2023-10-13T00:25:43;11.13;;;2.57;;
31730;SDS011;18310;55.586;12.286;2023-10-13T00:28:53;9.45;;;2.28;;
31730;SDS011;18310;55.586;12.286;2023-10-13T00:32:10;11.80;;;2.20;;
31730;SDS011;18310;55.586;12.286;2023-10-13T00:38:26;12.90;;;3.05;;
31730;SDS011;18310;55.586;12.286;2023-10-13T00:41:29;11.90;;;3.07;;
31730;SDS011;18310;55.586;12.286;2023-10-13T00:44:54;10.80;;;2.30;;
31730;SDS011;18310;55.586;12.286;2023-10-13T00:47:58;12.85;;;2.80;;
31730;SDS011;18310;55.586;12.286;2023-10-13T00:51:03;9.43;;;2.40;;
31730;SDS011;18310;55.586;12.286;2023-10-13T00:54:08;11.88;;;2.92;;
31730;SDS011;18310;55.586;12.286;2023-10-13T00:57:13;9.23;;;2.38;;
31730;SDS011;18310;55.586;12.286;2023-10-13T01:00:30;6.45;;;2.38;;
31730;SDS011;18310;55.586;12.286;2023-10-13T01:03:33;12.45;;;3.47;;
31730;SDS011;18310;55.586;12.286;2023-10-13T01:06:36;9.13;;;2.65;;
31730;SDS011;18310;55.586;12.286;2023-10-13T01:09:40;14.20;;;2.95;;
31730;SDS011;18310;55.586;12.286;2023-10-13T01:12:44;10.98;;;2.75;;
31730;SDS011;18310;55.586;12.286;2023-10-13T01:15:48;9.20;;;2.67;;
31730;SDS011;18310;55.586;12.286;2023-10-13T01:18:52;10.10;;;3.05;;
31730;SDS011;18310;55.586;12.286;2023-10-13T01:22:01;15.10;;;3.35;;
31730;SDS011;18310;55.586;12.286;2023-10-13T01:25:07;13.85;;;2.53;;
31730;SDS011;18310;55.586;12.286;2023-10-13T01:28:15;8.40;;;2.35;;
31730;SDS011;18310;55.586;12.286;2023-10-13T01:31:18;11.80;;;2.22;;
31730;SDS011;18310;55.586;12.286;2023-10-13T01:34:29;13.10;;;3.08;;
31730;SDS011;18310;55.586;12.286;2023-10-13T01:37:35;13.77;;;3.00;;
31730;SDS011;18310;55.586;12.286;2023-10-13T01:40:39;10.75;;;2.22;;
31730;SDS011;18310;55.586;12.286;2023-10-13T01:43:49;13.25;;;2.90;;
31730;SDS011;18310;55.586;12.286;2023-10-13T01:46:52;8.25;;;2.08;;
31730;SDS011;18310;55.586;12.286;2023-10-13T01:49:54;15.00;;;2.63;;
31730;SDS011;18310;55.586;12.286;2023-10-13T01:53:00;6.85;;;2.03;;
31730;SDS011;18310;55.586;12.286;2023-10-13T01:56:14;10.43;;;2.65;;
31730;SDS011;18310;55.586;12.286;2023-10-13T01:59:17;12.95;;;2.15;;
31730;SDS011;18310;55.586;12.286;2023-10-13T02:02:21;9.77;;;2.78;;
31730;SDS011;18310;55.586;12.286;2023-10-13T02:05:33;6.55;;;2.03;;
31730;SDS011;18310;55.586;12.286;2023-10-13T02:08:38;13.52;;;3.03;;
31730;SDS011;18310;55.586;12.286;2023-10-13T02:11:46;12.77;;;2.90;;
31730;SDS011;18310;55.586;12.286;2023-10-13T02:14:50;10.68;;;2.45;;
31730;SDS011;18310;55.586;12.286;2023-10-13T02:17:53;6.85;;;2.20;;
31730;SDS011;18310;55.586;12.286;2023-10-13T02:20:56;11.85;;;2.72;;
31730;SDS011;18310;55.586;12.286;2023-10-13T02:24:06;15.23;;;3.58;;
31730;SDS011;18310;55.586;12.286;2023-10-13T02:27:16;16.67;;;3.05;;
31730;SDS011;18310;55.586;12.286;2023-10-13T02:30:19;9.20;;;2.72;;
31730;SDS011;18310;55.586;12.286;2023-10-13T02:33:25;9.45;;;1.95;;
31730;SDS011;18310;55.586;12.286;2023-10-13T02:36:32;9.65;;;2.55;;
31730;SDS011;18310;55.586;12.286;2023-10-13T02:39:38;7.00;;;2.00;;
31730;SDS011;18310;55.586;12.286;2023-10-13T02:42:44;9.88;;;2.33;;
31730;SDS011;18310;55.586;12.286;2023-10-13T02:46:07;11.80;;;2.80;;
31730;SDS011;18310;55.586;12.286;2023-10-13T02:49:11;11.38;;;2.63;;
31730;SDS011;18310;55.586;12.286;2023-10-13T02:52:15;10.13;;;2.70;;
31730;SDS011;18310;55.586;12.286;2023-10-13T02:55:18;9.90;;;2.47;;
31730;SDS011;18310;55.586;12.286;2023-10-13T02:58:27;11.55;;;2.38;;
31730;SDS011;18310;55.586;12.286;2023-10-13T03:01:41;15.15;;;3.55;;
31730;SDS011;18310;55.586;12.286;2023-10-13T03:04:46;9.65;;;2.50;;
31730;SDS011;18310;55.586;12.286;2023-10-13T03:07:49;11.48;;;2.22;;
31730;SDS011;18310;55.586;12.286;2023-10-13T03:10:52;10.95;;;2.75;;
31730;SDS011;18310;55.586;12.286;2023-10-13T03:17:00;16.15;;;2.30;;
31730;SDS011;18310;55.586;12.286;2023-10-13T03:20:08;14.38;;;2.55;;
31730;SDS011;18310;55.586;12.286;2023-10-13T03:23:13;8.32;;;2.08;;
31730;SDS011;18310;55.586;12.286;2023-10-13T03:26:16;11.70;;;2.53;;
31730;SDS011;18310;55.586;12.286;2023-10-13T03:29:21;12.65;;;2.67;;
31730;SDS011;18310;55.586;12.286;2023-10-13T03:32:27;10.93;;;2.42;;
31730;SDS011;18310;55.586;12.286;2023-10-13T03:35:33;11.57;;;1.77;;
31730;SDS011;18310;55.586;12.286;2023-10-13T03:38:48;18.08;;;2.28;;
31730;SDS011;18310;55.586;12.286;2023-10-13T03:41:57;14.80;;;2.17;;
31730;SDS011;18310;55.586;12.286;2023-10-13T03:45:01;17.25;;;2.70;;
31730;SDS011;18310;55.586;12.286;2023-10-13T03:48:08;6.57;;;2.25;;
31730;SDS011;18310;55.586;12.286;2023-10-13T03:51:13;9.57;;;1.80;;
31730;SDS011;18310;55.586;12.286;2023-10-13T03:54:17;14.35;;;2.33;;
31730;SDS011;18310;55.586;12.286;2023-10-13T03:57:21;13.67;;;2.83;;
31730;SDS011;18310;55.586;12.286;2023-10-13T04:00:27;12.32;;;2.78;;
31730;SDS011;18310;55.586;12.286;2023-10-13T04:03:32;12.97;;;2.60;;
31730;SDS011;18310;55.586;12.286;2023-10-13T04:06:37;12.85;;;2.55;;
31730;SDS011;18310;55.586;12.286;2023-10-13T04:09:53;14.27;;;2.53;;
31730;SDS011;18310;55.586;12.286;2023-10-13T04:13:14;16.63;;;2.67;;
31730;SDS011;18310;55.586;12.286;2023-10-13T04:16:35;11.48;;;2.83;;
31730;SDS011;18310;55.586;12.286;2023-10-13T04:19:41;10.90;;;2.50;;
31730;SDS011;18310;55.586;12.286;2023-10-13T04:23:08;13.52;;;2.47;;
31730;SDS011;18310;55.586;12.286;2023-10-13T04:26:21;11.02;;;2.35;;
31730;SDS011;18310;55.586;12.286;2023-10-13T04:29:23;9.80;;;2.15;;
31730;SDS011;18310;55.586;12.286;2023-10-13T04:32:47;17.45;;;2.40;;
31730;SDS011;18310;55.586;12.286;2023-10-13T04:36:10;16.02;;;2.67;;
31730;SDS011;18310;55.586;12.286;2023-10-13T04:39:16;7.75;;;2.13;;
31730;SDS011;18310;55.586;12.286;2023-10-13T04:42:31;16.77;;;2.25;;
31730;SDS011;18310;55.586;12.286;2023-10-13T04:45:51;13.07;;;2.28;;
31730;SDS011;18310;55.586;12.286;2023-10-13T04:48:57;12.50;;;2.38;;
31730;SDS011;18310;55.586;12.286;2023-10-13T04:52:05;18.92;;;2.53;;
31730;SDS011;18310;55.586;12.286;2023-10-13T04:55:28;12.23;;;3.05;;
31730;SDS011;18310;55.586;12.286;2023-10-13T04:58:50;7.75;;;2.03;;
31730;SDS011;18310;55.586;12.286;2023-10-13T05:02:07;10.73;;;2.17;;
31730;SDS011;18310;55.586;12.286;2023-10-13T05:05:45;11.93;;;2.50;;
31730;SDS011;18310;55.586;12.286;2023-10-13T05:08:56;12.15;;;2.00;;
31730;SDS011;18310;55.586;12.286;2023-10-13T05:12:17;12.93;;;2.30;;
31730;SDS011;18310;55.586;12.286;2023-10-13T05:15:42;8.38;;;2.50;;
31730;SDS011;18310;55.586;12.286;2023-10-13T05:19:04;13.75;;;2.65;;
31730;SDS011;18310;55.586;12.286;2023-10-13T05:22:25;16.42;;;2.25;;
31730;SDS011;18310;55.586;12.286;2023-10-13T05:25:47;14.18;;;2.55;;
31730;SDS011;18310;55.586;12.286;2023-10-13T05:29:08;8.43;;;2.08;;
31730;SDS011;18310;55.586;12.286;2023-10-13T05:32:30;9.00;;;1.80;;
31730;SDS011;18310;55.586;12.286;2023-10-13T05:36:09;10.85;;;1.77;;
31730;SDS011;18310;55.586;12.286;2023-10-13T05:39:30;9.73;;;2.38;;
31730;SDS011;18310;55.586;12.286;2023-10-13T05:42:53;12.85;;;2.35;;
31730;SDS011;18310;55.586;12.286;2023-10-13T05:46:14;11.73;;;2.03;;
31730;SDS011;18310;55.586;12.286;2023-10-13T05:49:34;10.10;;;1.67;;
31730;SDS011;18310;55.586;12.286;2023-10-13T05:52:54;6.68;;;1.40;;
31730;SDS011;18310;55.586;12.286;2023-10-13T05:56:15;5.05;;;1.33;;
31730;SDS011;18310;55.586;12.286;2023-10-13T05:59:38;10.13;;;1.40;;
31730;SDS011;18310;55.586;12.286;2023-10-13T06:02:59;5.60;;;1.40;;
31730;SDS011;18310;55.586;12.286;2023-10-13T06:06:20;7.25;;;1.20;;
31730;SDS011;18310;55.586;12.286;2023-10-13T06:09:41;11.10;;;1.75;;
31730;SDS011;18310;55.586;12.286;2023-10-13T06:13:02;9.90;;;1.65;;
31730;SDS011;18310;55.586;12.286;2023-10-13T06:16:24;5.68;;;1.15;;
31730;SDS011;18310;55.586;12.286;2023-10-13T06:19:46;4.85;;;1.23;;
31730;SDS011;18310;55.586;12.286;2023-10-13T06:23:06;6.85;;;1.63;;
31730;SDS011;18310;55.586;12.286;2023-10-13T06:26:28;5.55;;;1.38;;
31730;SDS011;18310;55.586;12.286;2023-10-13T06:29:49;8.18;;;1.80;;
31730;SDS011;18310;55.586;12.286;2023-10-13T06:32:56;6.93;;;1.70;;
31730;SDS011;18310;55.586;12.286;2023-10-13T06:36:01;7.93;;;1.67;;
31730;SDS011;18310;55.586;12.286;2023-10-13T06:39:05;8.10;;;1.83;;
31730;SDS011;18310;55.586;12.286;2023-10-13T06:42:23;12.88;;;1.70;;
31730;SDS011;18310;55.586;12.286;2023-10-13T06:45:29;10.02;;;1.65;;
31730;SDS011;18310;55.586;12.286;2023-10-13T06:48:39;5.30;;;1.23;;
31730;SDS011;18310;55.586;12.286;2023-10-13T06:51:43;13.40;;;2.13;;
31730;SDS011;18310;55.586;12.286;2023-10-13T06:54:49;14.02;;;1.92;;
31730;SDS011;18310;55.586;12.286;2023-10-13T06:57:53;5.78;;;1.25;;
31730;SDS011;18310;55.586;12.286;2023-10-13T07:00:56;6.53;;;1.63;;
31730;SDS011;18310;55.586;12.286;2023-10-13T07:04:02;8.02;;;2.08;;
31730;SDS011;18310;55.586;12.286;2023-10-13T07:07:06;14.07;;;2.78;;
31730;SDS011;18310;55.586;12.286;2023-10-13T07:10:12;10.20;;;2.17;;
31730;SDS011;18310;55.586;12.286;2023-10-13T07:13:16;8.50;;;1.92;;
31730;SDS011;18310;55.586;12.286;2023-10-13T07:16:21;10.73;;;2.70;;
31730;SDS011;18310;55.586;12.286;2023-10-13T07:19:29;11.50;;;2.40;;
31730;SDS011;18310;55.586;12.286;2023-10-13T07:22:33;13.13;;;2.58;;
31730;SDS011;18310;55.586;12.286;2023-10-13T07:25:42;7.40;;;1.95;;
31730;SDS011;18310;55.586;12.286;2023-10-13T07:28:46;11.48;;;2.55;;
31730;SDS011;18310;55.586;12.286;2023-10-13T07:31:53;14.15;;;2.28;;
31730;SDS011;18310;55.586;12.286;2023-10-13T07:34:58;8.52;;;2.10;;
31730;SDS011;18310;55.586;12.286;2023-10-13T07:38:11;12.00;;;2.55;;
31730;SDS011;18310;55.586;12.286;2023-10-13T07:41:15;10.90;;;2.63;;
31730;SDS011;18310;55.586;12.286;2023-10-13T07:44:19;13.05;;;2.70;;
31730;SDS011;18310;55.586;12.286;2023-10-13T07:47:26;10.88;;;2.90;;
31730;SDS011;18310;55.586;12.286;2023-10-13T07:50:36;18.55;;;2.45;;
31730;SDS011;18310;55.586;12.286;2023-10-13T07:53:46;11.35;;;2.80;;
31730;SDS011;18310;55.586;12.286;2023-10-13T07:56:51;13.05;;;3.05;;
31730;SDS011;18310;55.586;12.286;2023-10-13T07:59:56;9.65;;;2.97;;
31730;SDS011;18310;55.586;12.286;2023-10-13T08:03:10;13.52;;;3.28;;
31730;SDS011;18310;55.586;12.286;2023-10-13T08:06:35;12.77;;;3.15;;
31730;SDS011;18310;55.586;12.286;2023-10-13T08:09:40;10.45;;;3.05;;
31730;SDS011;18310;55.586;12.286;2023-10-13T08:12:53;14.73;;;3.58;;
31730;SDS011;18310;55.586;12.286;2023-10-13T08:16:00;15.68;;;4.43;;
31730;SDS011;18310;55.586;12.286;2023-10-13T08:19:08;12.05;;;4.18;;
31730;SDS011;18310;55.586;12.286;2023-10-13T08:22:14;11.00;;;3.75;;
31730;SDS011;18310;55.586;12.286;2023-10-13T08:25:35;13.80;;;3.72;;
31730;SDS011;18310;55.586;12.286;2023-10-13T08:28:52;7.55;;;3.15;;
31730;SDS011;18310;55.586;12.286;2023-10-13T08:32:00;10.15;;;3.45;;
31730;SDS011;18310;55.586;12.286;2023-10-13T08:35:22;13.73;;;3.78;;
31730;SDS011;18310;55.586;12.286;2023-10-13T08:38:39;11.73;;;3.00;;
31730;SDS011;18310;55.586;12.286;2023-10-13T08:41:53;10.88;;;3.72;;
31730;SDS011;18310;55.586;12.286;2023-10-13T08:45:15;9.52;;;4.00;;
31730;SDS011;18310;55.586;12.286;2023-10-13T08:48:49;5.18;;;2.75;;
31730;SDS011;18310;55.586;12.286;2023-10-13T08:51:59;4.82;;;2.47;;
31730;SDS011;18310;55.586;12.286;2023-10-13T08:55:30;6.43;;;2.58;;
31730;SDS011;18310;55.586;12.286;2023-10-13T08:58:50;7.55;;;2.78;;
31730;SDS011;18310;55.586;12.286;2023-10-13T09:02:14;8.85;;;2.92;;
31730;SDS011;18310;55.586;12.286;2023-10-13T09:05:21;7.70;;;3.08;;
31730;SDS011;18310;55.586;12.286;2023-10-13T09:08:49;7.60;;;3.17;;
31730;SDS011;18310;55.586;12.286;2023-10-13T09:12:11;9.00;;;2.75;;
31730;SDS011;18310;55.586;12.286;2023-10-13T09:15:15;8.65;;;2.70;;
31730;SDS011;18310;55.586;12.286;2023-10-13T09:18:26;5.95;;;2.75;;
31730;SDS011;18310;55.586;12.286;2023-10-13T09:21:44;6.65;;;2.45;;
31730;SDS011;18310;55.586;12.286;2023-10-13T09:24:57;5.47;;;2.50;;
31730;SDS011;18310;55.586;12.286;2023-10-13T09:28:02;4.72;;;1.80;;
31730;SDS011;18310;55.586;12.286;2023-10-13T09:31:21;7.45;;;2.30;;
31730;SDS011;18310;55.586;12.286;2023-10-13T09:34:28;5.45;;;1.80;;
31730;SDS011;18310;55.586;12.286;2023-10-13T09:37:32;4.28;;;1.88;;
31730;SDS011;18310;55.586;12.286;2023-10-13T09:40:39;9.35;;;2.75;;
31730;SDS011;18310;55.586;12.286;2023-10-13T09:43:49;5.68;;;2.13;;
31730;SDS011;18310;55.586;12.286;2023-10-13T09:47:24;4.93;;;2.28;;
31730;SDS011;18310;55.586;12.286;2023-10-13T09:50:36;8.88;;;2.42;;
31730;SDS011;18310;55.586;12.286;2023-10-13T09:53:44;8.57;;;2.70;;
31730;SDS011;18310;55.586;12.286;2023-10-13T09:57:15;8.00;;;3.58;;
31730;SDS011;18310;55.586;12.286;2023-10-13T10:00:22;9.88;;;3.08;;
31730;SDS011;18310;55.586;12.286;2023-10-13T10:03:50;9.48;;;4.35;;
31730;SDS011;18310;55.586;12.286;2023-10-13T10:06:56;7.53;;;4.35;;
31730;SDS011;18310;55.586;12.286;2023-10-13T10:10:01;9.20;;;4.22;;
31730;SDS011;18310;55.586;12.286;2023-10-13T10:13:07;11.05;;;5.85;;
31730;SDS011;18310;55.586;12.286;2023-10-13T10:16:18;10.07;;;5.30;;
31730;SDS011;18310;55.586;12.286;2023-10-13T10:19:32;10.98;;;5.13;;
31730;SDS011;18310;55.586;12.286;2023-10-13T10:22:38;10.07;;;5.07;;
31730;SDS011;18310;55.586;12.286;2023-10-13T10:25:47;12.02;;;5.32;;
31730;SDS011;18310;55.586;12.286;2023-10-13T10:28:53;9.85;;;5.60;;
31730;SDS011;18310;55.586;12.286;2023-10-13T10:31:57;8.40;;;5.07;;
31730;SDS011;18310;55.586;12.286;2023-10-13T10:35:03;10.07;;;5.13;;
31730;SDS011;18310;55.586;12.286;2023-10-13T10:38:12;10.10;;;5.07;;
31730;SDS011;18310;55.586;12.286;2023-10-13T10:41:25;9.88;;;5.43;;
31730;SDS011;18310;55.586;12.286;2023-10-13T10:44:41;10.13;;;4.93;;
31730;SDS011;18310;55.586;12.286;2023-10-13T10:47:47;9.75;;;5.18;;
31730;SDS011;18310;55.586;12.286;2023-10-13T10:50:52;12.27;;;5.70;;
31730;SDS011;18310;55.586;12.286;2023-10-13T10:53:56;11.70;;;5.97;;
31730;SDS011;18310;55.586;12.286;2023-10-13T10:57:13;8.88;;;5.78;;
31730;SDS011;18310;55.586;12.286;2023-10-13T11:00:20;14.57;;;7.43;;
31730;SDS011;18310;55.586;12.286;2023-10-13T11:03:27;16.48;;;6.65;;
31730;SDS011;18310;55.586;12.286;2023-10-13T11:06:32;12.02;;;5.60;;
31730;SDS011;18310;55.586;12.286;2023-10-13T11:09:39;12.00;;;6.43;;
31730;SDS011;18310;55.586;12.286;2023-10-13T11:12:55;12.07;;;6.40;;
31730;SDS011;18310;55.586;12.286;2023-10-13T11:16:19;14.27;;;6.22;;
31730;SDS011;18310;55.586;12.286;2023-10-13T11:19:34;8.90;;;5.10;;
31730;SDS011;18310;55.586;12.286;2023-10-13T11:22:39;10.55;;;5.55;;
31730;SDS011;18310;55.586;12.286;2023-10-13T11:25:55;13.88;;;6.28;;
31730;SDS011;18310;55.586;12.286;2023-10-13T11:29:00;8.23;;;5.05;;
31730;SDS011;18310;55.586;12.286;2023-10-13T11:32:08;14.35;;;7.22;;
31730;SDS011;18310;55.586;12.286;2023-10-13T11:35:21;8.60;;;5.60;;
31730;SDS011;18310;55.586;12.286;2023-10-13T11:38:27;12.98;;;6.18;;
31730;SDS011;18310;55.586;12.286;2023-10-13T11:41:37;13.15;;;5.82;;
31730;SDS011;18310;55.586;12.286;2023-10-13T11:44:47;10.63;;;5.38;;
31730;SDS011;18310;55.586;12.286;2023-10-13T11:48:03;10.07;;;5.85;;
31730;SDS011;18310;55.586;12.286;2023-10-13T11:51:15;9.77;;;5.25;;
31730;SDS011;18310;55.586;12.286;2023-10-13T11:54:26;8.85;;;5.07;;
31730;SDS011;18310;55.586;12.286;2023-10-13T11:57:30;9.60;;;5.05;;
31730;SDS011;18310;55.586;12.286;2023-10-13T12:00:33;12.48;;;5.35;;
31730;SDS011;18310;55.586;12.286;2023-10-13T12:03:50;8.55;;;4.30;;
31730;SDS011;18310;55.586;12.286;2023-10-13T12:07:11;9.23;;;4.70;;
31730;SDS011;18310;55.586;12.286;2023-10-13T12:10:20;11.05;;;3.88;;
31730;SDS011;18310;55.586;12.286;2023-10-13T12:13:36;8.13;;;3.75;;
31730;SDS011;18310;55.586;12.286;2023-10-13T12:16:42;9.68;;;3.78;;
31730;SDS011;18310;55.586;12.286;2023-10-13T12:19:51;7.50;;;3.88;;
31730;SDS011;18310;55.586;12.286;2023-10-13T12:22:55;8.20;;;3.33;;
31730;SDS011;18310;55.586;12.286;2023-10-13T12:26:03;8.13;;;2.65;;
31730;SDS011;18310;55.586;12.286;2023-10-13T12:29:22;4.78;;;1.70;;
31730;SDS011;18310;55.586;12.286;2023-10-13T12:32:30;5.15;;;1.70;;
31730;SDS011;18310;55.586;12.286;2023-10-13T12:36:00;2.83;;;1.52;;
31730;SDS011;18310;55.586;12.286;2023-10-13T12:39:11;3.50;;;1.73;;
31730;SDS011;18310;55.586;12.286;2023-10-13T12:42:32;4.50;;;1.63;;
31730;SDS011;18310;55.586;12.286;2023-10-13T12:45:53;4.28;;;1.90;;
31730;SDS011;18310;55.586;12.286;2023-10-13T12:49:16;6.68;;;2.53;;
31730;SDS011;18310;55.586;12.286;2023-10-13T12:52:41;4.82;;;2.28;;
31730;SDS011;18310;55.586;12.286;2023-10-13T12:56:09;5.65;;;2.47;;
31730;SDS011;18310;55.586;12.286;2023-10-13T12:59:13;6.32;;;2.63;;
31730;SDS011;18310;55.586;12.286;2023-10-13T13:02:16;4.78;;;3.08;;
31730;SDS011;18310;55.586;12.286;2023-10-13T13:05:22;6.65;;;2.50;;
31730;SDS011;18310;55.586;12.286;2023-10-13T13:08:30;4.07;;;2.63;;
31730;SDS011;18310;55.586;12.286;2023-10-13T13:11:39;5.03;;;2.30;;
31730;SDS011;18310;55.586;12.286;2023-10-13T13:14:42;5.93;;;2.40;;
31730;SDS011;18310;55.586;12.286;2023-10-13T13:17:48;5.90;;;2.90;;
31730;SDS011;18310;55.586;12.286;2023-10-13T13:24:20;7.78;;;3.13;;
31730;SDS011;18310;55.586;12.286;2023-10-13T13:27:25;5.32;;;2.60;;
31730;SDS011;18310;55.586;12.286;2023-10-13T13:30:29;4.80;;;2.28;;
31730;SDS011;18310;55.586;12.286;2023-10-13T13:33:36;3.53;;;1.90;;
31730;SDS011;18310;55.586;12.286;2023-10-13T13:36:40;7.90;;;2.40;;
31730;SDS011;18310;55.586;12.286;2023-10-13T13:39:47;4.95;;;2.20;;
31730;SDS011;18310;55.586;12.286;2023-10-13T13:42:54;7.45;;;2.85;;
31730;SDS011;18310;55.586;12.286;2023-10-13T13:45:59;7.53;;;2.42;;
31730;SDS011;18310;55.586;12.286;2023-10-13T13:49:04;4.60;;;2.20;;
31730;SDS011;18310;55.586;12.286;2023-10-13T13:52:09;6.45;;;2.05;;
31730;SDS011;18310;55.586;12.286;2023-10-13T13:55:21;6.72;;;3.00;;
31730;SDS011;18310;55.586;12.286;2023-10-13T13:58:25;3.83;;;2.47;;
31730;SDS011;18310;55.586;12.286;2023-10-13T14:01:28;5.10;;;2.20;;
31730;SDS011;18310;55.586;12.286;2023-10-13T14:04:32;8.35;;;2.40;;
31730;SDS011;18310;55.586;12.286;2023-10-13T14:07:36;4.43;;;2.55;;
31730;SDS011;18310;55.586;12.286;2023-10-13T14:13:59;8.18;;;2.80;;
31730;SDS011;18310;55.586;12.286;2023-10-13T14:17:06;6.80;;;3.00;;
31730;SDS011;18310;55.586;12.286;2023-10-13T14:20:10;5.53;;;3.13;;
31730;SDS011;18310;55.586;12.286;2023-10-13T14:23:20;7.63;;;3.20;;
31730;SDS011;18310;55.586;12.286;2023-10-13T14:26:25;8.15;;;3.88;;
31730;SDS011;18310;55.586;12.286;2023-10-13T14:29:29;9.35;;;3.88;;
31730;SDS011;18310;55.586;12.286;2023-10-13T14:32:32;10.27;;;3.40;;
31730;SDS011;18310;55.586;12.286;2023-10-13T14:35:55;10.07;;;3.95;;
31730;SDS011;18310;55.586;12.286;2023-10-13T14:38:58;11.63;;;4.22;;
31730;SDS011;18310;55.586;12.286;2023-10-13T14:42:01;14.85;;;4.53;;
31730;SDS011;18310;55.586;12.286;2023-10-13T14:45:07;11.60;;;4.63;;
31730;SDS011;18310;55.586;12.286;2023-10-13T14:48:15;7.07;;;4.13;;
31730;SDS011;18310;55.586;12.286;2023-10-13T14:51:20;17.25;;;4.78;;
31730;SDS011;18310;55.586;12.286;2023-10-13T14:54:23;10.73;;;4.65;;
31730;SDS011;18310;55.586;12.286;2023-10-13T14:57:35;10.60;;;4.80;;
31730;SDS011;18310;55.586;12.286;2023-10-13T15:00:39;10.73;;;4.55;;
31730;SDS011;18310;55.586;12.286;2023-10-13T15:03:49;8.75;;;4.30;;
31730;SDS011;18310;55.586;12.286;2023-10-13T15:06:58;8.85;;;4.53;;
31730;SDS011;18310;55.586;12.286;2023-10-13T15:10:03;9.95;;;4.47;;
31730;SDS011;18310;55.586;12.286;2023-10-13T15:13:07;9.00;;;4.47;;
31730;SDS011;18310;55.586;12.286;2023-10-13T15:16:14;12.90;;;5.05;;
31730;SDS011;18310;55.586;12.286;2023-10-13T15:19:19;11.68;;;4.60;;
31730;SDS011;18310;55.586;12.286;2023-10-13T15:22:23;12.97;;;4.50;;
31730;SDS011;18310;55.586;12.286;2023-10-13T15:25:30;11.65;;;4.63;;
31730;SDS011;18310;55.586;12.286;2023-10-13T15:28:41;14.43;;;4.45;;
31730;SDS011;18310;55.586;12.286;2023-10-13T15:31:50;14.07;;;5.47;;
31730;SDS011;18310;55.586;12.286;2023-10-13T15:35:07;11.82;;;5.13;;
31730;SDS011;18310;55.586;12.286;2023-10-13T15:38:32;10.55;;;4.68;;
31730;SDS011;18310;55.586;12.286;2023-10-13T15:41:35;12.20;;;4.82;;
31730;SDS011;18310;55.586;12.286;2023-10-13T15:44:40;19.95;;;5.32;;
31730;SDS011;18310;55.586;12.286;2023-10-13T15:47:45;11.82;;;5.32;;
31730;SDS011;18310;55.586;12.286;2023-10-13T15:50:52;17.40;;;4.80;;
31730;SDS011;18310;55.586;12.286;2023-10-13T15:53:57;14.45;;;4.45;;
31730;SDS011;18310;55.586;12.286;2023-10-13T15:57:01;16.20;;;4.78;;
31730;SDS011;18310;55.586;12.286;2023-10-13T16:00:08;12.55;;;4.65;;
31730;SDS011;18310;55.586;12.286;2023-10-13T16:03:26;11.85;;;4.53;;
31730;SDS011;18310;55.586;12.286;2023-10-13T16:06:31;12.75;;;5.18;;
31730;SDS011;18310;55.586;12.286;2023-10-13T16:09:36;12.98;;;4.85;;
31730;SDS011;18310;55.586;12.286;2023-10-13T16:12:40;10.65;;;4.85;;
31730;SDS011;18310;55.586;12.286;2023-10-13T16:15:46;13.20;;;5.00;;
31730;SDS011;18310;55.586;12.286;2023-10-13T16:18:50;17.33;;;8.00;;
31730;SDS011;18310;55.586;12.286;2023-10-13T16:21:54;15.65;;;5.28;;
31730;SDS011;18310;55.586;12.286;2023-10-13T16:24:59;11.18;;;4.45;;
31730;SDS011;18310;55.586;12.286;2023-10-13T16:28:19;13.05;;;5.25;;
31730;SDS011;18310;55.586;12.286;2023-10-13T16:31:24;12.80;;;4.45;;
31730;SDS011;18310;55.586;12.286;2023-10-13T16:34:30;14.85;;;4.32;;
31730;SDS011;18310;55.586;12.286;2023-10-13T16:37:33;16.48;;;5.05;;
31730;SDS011;18310;55.586;12.286;2023-10-13T16:40:38;20.07;;;4.90;;
31730;SDS011;18310;55.586;12.286;2023-10-13T16:43:48;9.77;;;4.43;;
31730;SDS011;18310;55.586;12.286;2023-10-13T16:46:53;18.90;;;5.15;;
31730;SDS011;18310;55.586;12.286;2023-10-13T16:49:58;18.05;;;4.65;;
31730;SDS011;18310;55.586;12.286;2023-10-13T16:53:04;19.65;;;4.70;;
31730;SDS011;18310;55.586;12.286;2023-10-13T16:56:09;12.80;;;4.88;;
31730;SDS011;18310;55.586;12.286;2023-10-13T16:59:14;15.05;;;5.43;;
31730;SDS011;18310;55.586;12.286;2023-10-13T17:02:17;15.07;;;5.10;;
31730;SDS011;18310;55.586;12.286;2023-10-13T17:05:20;16.95;;;5.20;;
31730;SDS011;18310;55.586;12.286;2023-10-13T17:08:24;20.77;;;5.00;;
31730;SDS011;18310;55.586;12.286;2023-10-13T17:11:32;15.00;;;4.97;;
31730;SDS011;18310;55.586;12.286;2023-10-13T17:14:37;10.55;;;4.65;;
31730;SDS011;18310;55.586;12.286;2023-10-13T17:17:42;15.05;;;4.65;;
31730;SDS011;18310;55.586;12.286;2023-10-13T17:20:46;12.95;;;5.22;;
31730;SDS011;18310;55.586;12.286;2023-10-13T17:23:49;16.75;;;4.97;;
31730;SDS011;18310;55.586;12.286;2023-10-13T17:26:55;17.83;;;5.40;;
31730;SDS011;18310;55.586;12.286;2023-10-13T17:30:03;12.65;;;4.53;;
31730;SDS011;18310;55.586;12.286;2023-10-13T17:33:07;13.52;;;4.97;;
31730;SDS011;18310;55.586;12.286;2023-10-13T17:36:13;14.38;;;4.55;;
31730;SDS011;18310;55.586;12.286;2023-10-13T17:39:16;12.90;;;5.50;;
31730;SDS011;18310;55.586;12.286;2023-10-13T17:42:22;14.35;;;5.57;;
31730;SDS011;18310;55.586;12.286;2023-10-13T17:45:25;12.45;;;4.72;;
31730;SDS011;18310;55.586;12.286;2023-10-13T17:48:29;11.75;;;4.40;;
31730;SDS011;18310;55.586;12.286;2023-10-13T17:51:33;16.10;;;5.28;;
31730;SDS011;18310;55.586;12.286;2023-10-13T17:54:36;8.73;;;4.43;;
31730;SDS011;18310;55.586;12.286;2023-10-13T17:57:41;12.65;;;4.45;;
31730;SDS011;18310;55.586;12.286;2023-10-13T18:00:44;10.32;;;4.43;;
31730;SDS011;18310;55.586;12.286;2023-10-13T18:04:09;10.85;;;4.72;;
31730;SDS011;18310;55.586;12.286;2023-10-13T18:07:17;15.98;;;5.18;;
31730;SDS011;18310;55.586;12.286;2023-10-13T18:10:23;11.93;;;4.82;;
31730;SDS011;18310;55.586;12.286;2023-10-13T18:13:26;13.48;;;4.95;;
31730;SDS011;18310;55.586;12.286;2023-10-13T18:16:30;14.57;;;5.00;;
31730;SDS011;18310;55.586;12.286;2023-10-13T18:19:34;18.37;;;5.83;;
31730;SDS011;18310;55.586;12.286;2023-10-13T18:22:40;11.48;;;5.93;;
31730;SDS011;18310;55.586;12.286;2023-10-13T18:25:43;13.65;;;5.55;;
31730;SDS011;18310;55.586;12.286;2023-10-13T18:28:49;19.55;;;6.15;;
31730;SDS011;18310;55.586;12.286;2023-10-13T18:31:53;15.40;;;5.80;;
31730;SDS011;18310;55.586;12.286;2023-10-13T18:38:01;14.88;;;6.05;;
31730;SDS011;18310;55.586;12.286;2023-10-13T18:41:06;26.75;;;6.28;;
31730;SDS011;18310;55.586;12.286;2023-10-13T18:44:09;15.43;;;5.57;;
31730;SDS011;18310;55.586;12.286;2023-10-13T18:47:14;31.13;;;7.38;;
31730;SDS011;18310;55.586;12.286;2023-10-13T18:50:20;11.60;;;4.97;;